KGSP/GSP METAR and TAF weather

Enter ICAO airport designator
Station Type Date Time Source
KGSP METAR 2019/10/18 10:53 UTC NOAA

KGSP 181053Z 03004KT 10SM CLR 08/02 A3003 RMK AO2 SLP164 T00830022


Station Type Date Time Source
KGSP Decoded METAR 2019/10/18 10:53 UTC NOAA

GREER GREENVILLE SPARTBURG, SC, United States (KGSP) 34-53N 82-13W 286M
Oct 18, 2019 - 06:53 AM EDT / 2019.10.18 1053 UTC
Wind: from the NNE (030 degrees) at 5 MPH (4 KT):0
Visibility: 10 mile(s):0
Sky conditions: clear
Temperature: 46.9 F (8.3 C)
Dew Point: 36.0 F (2.2 C)
Relative Humidity: 65%
Pressure (altimeter): 30.03 in. Hg (1016 hPa)
ob: KGSP 181053Z 03004KT 10SM CLR 08/02 A3003 RMK AO2 SLP164 T00830022
cycle: 11

Station Type Date Time Source
KGSP TAF 2019/10/18 06:34 UTC NOAA

TAF KGSP 180532Z 1806/1906 35005KT P6SM SKC
FM180700 04004KT P6SM SKC
FM181700 14004KT P6SM SKC
FM190000 VRB03KT P6SM FEW250

Example: see airport list